createdAt,value
2019-03-25T00:02:04.423Z,19.97
2019-03-25T00:04:33.363Z,17.20
2019-03-25T00:07:02.267Z,12.93
2019-03-25T00:09:31.222Z,17.70
2019-03-25T00:12:00.221Z,12.73
2019-03-25T00:14:29.182Z,14.93
2019-03-25T00:16:58.180Z,12.90
2019-03-25T00:19:27.130Z,10.80
2019-03-25T00:21:56.032Z,18.30
2019-03-25T00:24:24.984Z,17.53
2019-03-25T00:26:53.919Z,16.80
2019-03-25T00:29:22.863Z,10.40
2019-03-25T00:31:51.758Z,8.17
2019-03-25T00:34:20.709Z,5.00
2019-03-25T00:36:49.611Z,5.40
2019-03-25T00:39:18.586Z,5.10
2019-03-25T00:41:47.489Z,2.97
2019-03-25T00:44:16.431Z,1.53
2019-03-25T00:46:45.336Z,2.50
2019-03-25T00:49:14.292Z,2.07
2019-03-25T00:51:43.187Z,2.40
2019-03-25T00:54:12.099Z,3.03
2019-03-25T00:56:41.028Z,1.40
2019-03-25T00:59:09.947Z,2.27
2019-03-25T01:01:38.878Z,0.90
2019-03-25T01:04:07.792Z,0.40
2019-03-25T01:06:36.725Z,1.40
2019-03-25T01:09:06.835Z,2.90
2019-03-25T01:11:35.802Z,1.97
2019-03-25T01:14:04.712Z,1.33
2019-03-25T01:16:33.650Z,1.10
2019-03-25T01:19:02.553Z,1.97
2019-03-25T01:21:31.506Z,3.13
2019-03-25T01:24:00.404Z,4.63
2019-03-25T01:26:29.351Z,1.83
2019-03-25T01:28:58.294Z,1.37
2019-03-25T01:31:27.233Z,3.43
2019-03-25T01:33:56.142Z,1.73
2019-03-25T01:36:25.101Z,6.70
2019-03-25T01:38:53.993Z,6.33
2019-03-25T01:41:22.954Z,3.10
2019-03-25T01:43:51.861Z,2.40
2019-03-25T01:46:20.801Z,7.53
2019-03-25T01:48:49.707Z,3.77
2019-03-25T01:51:18.706Z,4.50
2019-03-25T01:53:47.661Z,7.37
2019-03-25T01:56:16.596Z,3.37
2019-03-25T01:58:45.505Z,5.00
2019-03-25T02:01:14.438Z,3.97
2019-03-25T02:03:43.369Z,1.53
2019-03-25T02:06:12.377Z,3.20
2019-03-25T02:08:41.282Z,3.27
2019-03-25T02:11:10.268Z,6.23
2019-03-25T02:13:39.179Z,1.87
2019-03-25T02:16:08.087Z,2.00
2019-03-25T02:18:37.039Z,2.67
2019-03-25T02:21:06.244Z,4.00
2019-03-25T02:23:35.185Z,4.43
2019-03-25T02:26:04.092Z,2.87
2019-03-25T02:28:33.039Z,6.33
2019-03-25T02:31:01.936Z,1.50
2019-03-25T02:33:30.896Z,2.93
2019-03-25T02:35:59.887Z,6.17
2019-03-25T02:38:28.845Z,5.20
2019-03-25T02:40:57.737Z,8.70
2019-03-25T02:43:26.676Z,5.10
2019-03-25T02:45:55.594Z,3.13
2019-03-25T02:48:24.528Z,3.93
2019-03-25T02:50:53.534Z,3.30
2019-03-25T02:53:22.872Z,6.67
2019-03-25T02:55:51.776Z,6.00
2019-03-25T02:58:20.730Z,3.80
2019-03-25T03:00:49.633Z,6.00
2019-03-25T03:03:18.587Z,5.00
2019-03-25T03:05:47.476Z,5.30
2019-03-25T03:08:16.428Z,6.43
2019-03-25T03:10:45.344Z,8.73
2019-03-25T03:13:14.279Z,12.33
2019-03-25T03:15:43.183Z,5.23
2019-03-25T03:18:12.138Z,10.83
2019-03-25T03:20:41.040Z,11.70
2019-03-25T03:23:10.045Z,5.13
2019-03-25T03:25:38.956Z,10.20
2019-03-25T03:28:07.909Z,6.60
2019-03-25T03:30:36.818Z,9.90
2019-03-25T03:33:05.992Z,11.13
2019-03-25T03:35:35.000Z,7.87
2019-03-25T03:38:03.951Z,13.77
2019-03-25T03:40:32.858Z,9.43
2019-03-25T03:43:01.800Z,12.53
2019-03-25T03:45:30.705Z,9.07
2019-03-25T03:47:59.668Z,14.43
2019-03-25T03:50:29.375Z,6.23
2019-03-25T03:52:58.669Z,8.20
2019-03-25T03:55:28.025Z,10.93
2019-03-25T03:57:57.124Z,10.57
2019-03-25T04:00:30.821Z,11.83
2019-03-25T04:03:00.334Z,11.13
2019-03-25T04:05:29.276Z,21.63
2019-03-25T04:07:58.190Z,13.30
2019-03-25T04:10:27.128Z,13.00
2019-03-25T04:12:56.039Z,15.93
2019-03-25T04:15:30.354Z,19.13
2019-03-25T04:18:00.309Z,9.20
2019-03-25T04:20:29.462Z,11.17
2019-03-25T04:22:58.411Z,14.43
2019-03-25T04:25:27.361Z,15.93
2019-03-25T04:27:56.265Z,21.43
2019-03-25T04:30:25.219Z,13.17
2019-03-25T04:32:54.116Z,15.33
2019-03-25T04:35:23.064Z,20.33
2019-03-25T04:37:52.011Z,17.63
2019-03-25T04:40:20.956Z,20.27
2019-03-25T04:42:49.865Z,17.83
2019-03-25T04:45:18.830Z,20.73
2019-03-25T04:47:48.448Z,20.53
2019-03-25T04:50:17.391Z,24.80
2019-03-25T04:52:46.287Z,12.60
2019-03-25T04:55:15.231Z,16.03
2019-03-25T04:57:44.136Z,16.53
2019-03-25T05:00:13.611Z,14.80
2019-03-25T05:02:42.527Z,11.30
2019-03-25T05:05:11.567Z,16.60
2019-03-25T05:07:40.478Z,12.67
2019-03-25T05:10:09.525Z,10.40
2019-03-25T05:12:38.524Z,11.70
2019-03-25T05:15:07.568Z,17.20
2019-03-25T05:17:36.482Z,13.63
2019-03-25T05:20:06.920Z,10.67
2019-03-25T05:22:35.902Z,9.53
2019-03-25T05:25:06.303Z,10.23
2019-03-25T05:27:35.252Z,14.30
2019-03-25T05:30:05.851Z,13.17
2019-03-25T05:32:34.793Z,11.17
2019-03-25T05:35:04.089Z,10.50
2019-03-25T05:37:33.035Z,9.43
2019-03-25T05:40:01.930Z,12.40
2019-03-25T05:42:30.876Z,10.70
2019-03-25T05:44:59.782Z,9.40
2019-03-25T05:47:28.728Z,10.00
2019-03-25T05:49:57.622Z,5.83
2019-03-25T05:52:26.570Z,6.73
2019-03-25T05:54:55.462Z,7.10
2019-03-25T05:57:24.440Z,8.20
2019-03-25T05:59:53.410Z,8.60
2019-03-25T06:02:22.362Z,10.33
2019-03-25T06:04:51.271Z,8.40
2019-03-25T06:07:20.224Z,13.67
2019-03-25T06:09:49.128Z,10.67
2019-03-25T06:12:18.077Z,7.77
2019-03-25T06:14:47.009Z,10.00
2019-03-25T06:17:15.955Z,13.97
2019-03-25T06:19:44.862Z,13.83
2019-03-25T06:22:13.799Z,9.40
2019-03-25T06:24:42.702Z,12.43
2019-03-25T06:27:14.343Z,6.83
2019-03-25T06:29:42.183Z,10.10
2019-03-25T06:32:11.127Z,8.27
2019-03-25T06:34:40.041Z,10.10
2019-03-25T06:37:08.978Z,3.13
2019-03-25T06:39:37.883Z,9.53
2019-03-25T06:42:06.787Z,6.10
2019-03-25T06:44:35.729Z,10.47
2019-03-25T06:47:04.640Z,9.90
2019-03-25T06:49:33.586Z,8.43
2019-03-25T06:52:02.501Z,10.53
2019-03-25T06:54:31.478Z,11.13
2019-03-25T06:57:00.386Z,11.10
2019-03-25T06:59:29.345Z,9.73
2019-03-25T07:01:58.253Z,10.30
2019-03-25T07:04:27.199Z,10.40
2019-03-25T07:06:56.115Z,15.93
2019-03-25T07:09:25.060Z,13.70
2019-03-25T07:11:53.981Z,13.27
2019-03-25T07:14:22.943Z,9.50
2019-03-25T07:16:51.943Z,10.70
2019-03-25T07:19:20.902Z,16.80
2019-03-25T07:21:49.786Z,8.07
2019-03-25T07:24:18.735Z,11.13
2019-03-25T07:26:47.647Z,7.90
2019-03-25T07:29:19.080Z,11.63
2019-03-25T07:31:48.371Z,8.20
2019-03-25T07:34:17.329Z,13.17
2019-03-25T07:36:46.234Z,8.13
2019-03-25T07:39:15.215Z,19.90
2019-03-25T07:41:44.188Z,8.67
2019-03-25T07:44:13.137Z,11.87
2019-03-25T07:46:42.144Z,11.63
2019-03-25T07:49:11.090Z,13.87
2019-03-25T07:51:40.065Z,9.47
2019-03-25T07:54:09.110Z,8.43
2019-03-25T07:56:38.013Z,13.83
2019-03-25T07:59:06.986Z,11.53
2019-03-25T08:01:35.903Z,17.77
2019-03-25T08:04:04.878Z,11.77
2019-03-25T08:06:33.878Z,8.83
2019-03-25T08:09:03.915Z,14.50
2019-03-25T08:11:33.175Z,19.63
2019-03-25T08:14:02.134Z,11.60
2019-03-25T08:16:31.147Z,10.17
2019-03-25T08:19:00.165Z,12.40
2019-03-25T08:21:29.363Z,13.37
2019-03-25T08:23:58.325Z,10.23
2019-03-25T08:26:27.251Z,9.90
2019-03-25T08:28:56.341Z,9.13
2019-03-25T08:31:25.299Z,13.63
2019-03-25T08:33:54.319Z,17.63
2019-03-25T08:36:23.366Z,11.87
2019-03-25T08:38:52.404Z,8.23
2019-03-25T08:41:21.407Z,13.67
2019-03-25T08:43:50.582Z,12.37
2019-03-25T08:46:19.618Z,11.77
2019-03-25T08:48:48.653Z,14.50
2019-03-25T08:51:17.572Z,12.00
2019-03-25T08:53:46.567Z,9.90
2019-03-25T08:56:15.599Z,15.50
2019-03-25T08:58:44.517Z,19.23
2019-03-25T09:01:13.550Z,13.63
2019-03-25T09:03:42.548Z,12.03
2019-03-25T09:06:11.497Z,17.43
2019-03-25T09:08:40.409Z,16.03
2019-03-25T09:11:09.439Z,10.60
2019-03-25T09:13:38.459Z,13.90
2019-03-25T09:16:07.544Z,21.93
2019-03-25T09:18:36.530Z,14.27
2019-03-25T09:21:05.520Z,14.87
2019-03-25T09:23:34.442Z,11.33
2019-03-25T09:26:03.460Z,14.43
2019-03-25T09:28:32.397Z,10.93
2019-03-25T09:31:13.233Z,15.97
2019-03-25T09:33:42.553Z,25.60
2019-03-25T09:36:11.788Z,17.00
2019-03-25T09:38:40.767Z,12.73
2019-03-25T09:41:09.847Z,9.43
2019-03-25T09:43:38.939Z,8.40
2019-03-25T09:46:08.026Z,14.70
2019-03-25T09:48:36.960Z,10.10
2019-03-25T09:51:06.209Z,12.90
2019-03-25T09:53:35.144Z,13.83
2019-03-25T09:56:04.137Z,13.03
2019-03-25T09:58:36.477Z,18.07
2019-03-25T10:01:03.672Z,12.30
2019-03-25T10:03:32.635Z,15.23
2019-03-25T10:06:01.599Z,12.27
2019-03-25T10:08:30.508Z,12.70
2019-03-25T10:10:59.453Z,10.20
2019-03-25T10:13:28.456Z,12.30
2019-03-25T10:15:57.863Z,12.83
2019-03-25T10:18:26.764Z,7.20
2019-03-25T10:20:55.708Z,4.97
2019-03-25T10:23:24.608Z,4.53
2019-03-25T10:25:53.548Z,4.20
2019-03-25T10:28:22.453Z,9.13
2019-03-25T10:30:51.411Z,12.57
2019-03-25T10:33:20.349Z,9.10
2019-03-25T10:35:49.319Z,15.63
2019-03-25T10:38:19.788Z,8.60
2019-03-25T10:40:48.986Z,8.70
2019-03-25T10:43:19.438Z,6.30
2019-03-25T10:45:48.351Z,12.07
2019-03-25T10:48:17.347Z,3.47
2019-03-25T10:50:46.218Z,11.93
2019-03-25T10:53:15.166Z,7.43
2019-03-25T10:55:44.193Z,8.07
2019-03-25T10:58:13.143Z,10.13
2019-03-25T11:00:42.053Z,4.40
2019-03-25T11:03:11.014Z,7.23
2019-03-25T11:05:39.922Z,12.10
2019-03-25T11:08:08.899Z,9.90
2019-03-25T11:10:37.810Z,6.30
2019-03-25T11:13:06.774Z,12.50
2019-03-25T11:15:35.668Z,15.13
2019-03-25T11:18:05.814Z,10.47
2019-03-25T11:20:34.928Z,8.70
2019-03-25T11:23:03.865Z,7.53
2019-03-25T11:25:32.766Z,7.20
2019-03-25T11:28:01.714Z,10.07
2019-03-25T11:30:51.285Z,11.60
2019-03-25T11:33:20.237Z,12.50
2019-03-25T11:35:49.198Z,10.50
2019-03-25T11:38:18.149Z,11.50
2019-03-25T11:40:47.054Z,6.80
2019-03-25T11:43:15.992Z,11.87
2019-03-25T11:45:45.199Z,8.00
2019-03-25T11:48:14.142Z,9.53
2019-03-25T11:50:43.043Z,9.33
2019-03-25T11:53:11.994Z,12.37
2019-03-25T11:55:40.910Z,6.90
2019-03-25T11:58:09.858Z,10.00
2019-03-25T12:00:38.753Z,9.03
2019-03-25T12:03:07.713Z,8.23
2019-03-25T12:05:36.613Z,6.73
2019-03-25T12:08:05.556Z,4.83
2019-03-25T12:10:34.559Z,9.13
2019-03-25T12:13:03.544Z,9.67
2019-03-25T12:15:32.447Z,7.13
2019-03-25T12:18:01.386Z,6.03
2019-03-25T12:20:30.286Z,5.30
2019-03-25T12:22:59.184Z,3.13
2019-03-25T12:25:28.123Z,8.00
2019-03-25T12:27:57.036Z,5.53
2019-03-25T12:30:25.971Z,4.03
2019-03-25T12:33:03.564Z,6.23
2019-03-25T12:35:25.561Z,3.67
2019-03-25T12:37:54.463Z,5.77
2019-03-25T12:40:23.418Z,7.33
2019-03-25T12:42:52.322Z,5.63
2019-03-25T12:45:21.265Z,6.90
2019-03-25T12:47:50.174Z,4.00
2019-03-25T12:50:19.221Z,7.60
2019-03-25T12:52:48.114Z,9.07
2019-03-25T12:55:17.054Z,5.10
2019-03-25T12:57:45.951Z,4.87
2019-03-25T13:00:15.001Z,4.13
2019-03-25T13:02:43.905Z,3.90
2019-03-25T13:05:13.349Z,6.17
2019-03-25T13:07:42.255Z,6.17
2019-03-25T13:10:11.303Z,6.07
2019-03-25T13:12:40.201Z,4.03
2019-03-25T13:15:09.342Z,2.87
2019-03-25T13:17:38.605Z,4.73
2019-03-25T13:20:07.544Z,9.13
2019-03-25T13:22:36.441Z,3.67
2019-03-25T13:25:06.181Z,2.77
2019-03-25T13:27:35.079Z,5.67
2019-03-25T13:30:06.026Z,3.00
2019-03-25T13:32:34.935Z,4.20
2019-03-25T13:35:04.899Z,3.90
2019-03-25T13:37:33.797Z,2.57
2019-03-25T13:40:03.146Z,4.40
2019-03-25T13:42:32.067Z,4.03
2019-03-25T13:45:00.985Z,3.87
2019-03-25T13:47:30.017Z,5.13
2019-03-25T13:49:58.914Z,7.07
2019-03-25T13:52:27.858Z,9.57
2019-03-25T13:54:56.753Z,4.70
2019-03-25T13:57:25.711Z,7.20
2019-03-25T14:00:02.961Z,7.17
2019-03-25T14:02:25.194Z,4.53
2019-03-25T14:04:54.121Z,3.27
2019-03-25T14:07:23.070Z,3.80
2019-03-25T14:09:51.969Z,4.43
2019-03-25T14:12:20.906Z,5.03
2019-03-25T14:14:49.807Z,3.63
2019-03-25T14:17:18.751Z,2.40
2019-03-25T14:19:47.665Z,4.00
2019-03-25T14:22:16.599Z,6.53
2019-03-25T14:24:45.520Z,4.30
2019-03-25T14:27:14.461Z,4.77
2019-03-25T14:29:43.373Z,6.40
2019-03-25T14:32:12.320Z,5.13
2019-03-25T14:34:44.890Z,2.23
2019-03-25T14:37:11.802Z,5.90
2019-03-25T14:39:40.698Z,4.40
2019-03-25T14:42:09.645Z,2.27
2019-03-25T14:44:38.657Z,4.53
2019-03-25T14:47:07.754Z,4.50
2019-03-25T14:49:36.696Z,6.53
2019-03-25T14:52:05.637Z,2.43
2019-03-25T14:54:34.537Z,3.33
2019-03-25T14:57:03.476Z,3.67
2019-03-25T14:59:32.395Z,6.87
2019-03-25T15:02:01.330Z,5.47
2019-03-25T15:04:30.241Z,5.70
2019-03-25T15:06:59.147Z,2.50
2019-03-25T15:09:28.101Z,3.03
2019-03-25T15:11:56.997Z,3.43
2019-03-25T15:14:25.943Z,3.07
2019-03-25T15:16:54.841Z,3.43
2019-03-25T15:19:23.789Z,4.40
2019-03-25T15:21:52.709Z,3.77
2019-03-25T15:24:21.655Z,6.60
2019-03-25T15:26:50.560Z,4.53
2019-03-25T15:29:19.504Z,10.03
2019-03-25T15:31:48.839Z,4.83
2019-03-25T15:34:17.786Z,4.90
2019-03-25T15:36:46.687Z,5.40
2019-03-25T15:39:15.626Z,6.67
2019-03-25T15:41:44.540Z,4.03
2019-03-25T15:44:13.467Z,6.70
2019-03-25T15:46:42.366Z,8.77
2019-03-25T15:49:11.301Z,6.13
2019-03-25T15:51:40.202Z,6.83
2019-03-25T15:54:09.144Z,10.67
2019-03-25T15:56:38.047Z,4.43
2019-03-25T15:59:07.003Z,5.43
2019-03-25T16:01:35.899Z,3.97
2019-03-25T16:04:04.845Z,6.10
2019-03-25T16:06:33.751Z,4.27
2019-03-25T16:09:02.699Z,3.83
2019-03-25T16:11:31.603Z,3.27
2019-03-25T16:14:00.549Z,4.23
2019-03-25T16:16:29.451Z,4.67
2019-03-25T16:18:58.392Z,5.00
2019-03-25T16:21:27.290Z,4.43
2019-03-25T16:23:57.168Z,4.50
2019-03-25T16:26:26.068Z,5.43
2019-03-25T16:28:55.013Z,3.17
2019-03-25T16:31:23.928Z,6.00
2019-03-25T16:33:52.893Z,6.10
2019-03-25T16:36:23.277Z,3.73
2019-03-25T16:38:52.228Z,5.07
2019-03-25T16:41:21.127Z,6.07
2019-03-25T16:43:50.081Z,2.87
2019-03-25T16:46:19.088Z,5.07
2019-03-25T16:48:49.342Z,3.93
2019-03-25T16:51:18.284Z,3.47
2019-03-25T16:53:48.302Z,4.40
2019-03-25T16:56:17.243Z,3.57
2019-03-25T16:58:46.148Z,6.73
2019-03-25T17:01:15.094Z,5.17
2019-03-25T17:03:43.995Z,6.30
2019-03-25T17:06:12.944Z,5.80
2019-03-25T17:08:41.842Z,4.20
2019-03-25T17:11:10.827Z,9.43
2019-03-25T17:13:39.794Z,5.97
2019-03-25T17:16:08.737Z,6.73
2019-03-25T17:18:37.637Z,5.83
2019-03-25T17:21:06.588Z,4.87
2019-03-25T17:23:35.493Z,3.70
2019-03-25T17:26:04.430Z,7.63
2019-03-25T17:28:33.341Z,6.33
2019-03-25T17:31:03.198Z,6.13
2019-03-25T17:33:32.290Z,4.97
2019-03-25T17:36:01.238Z,4.43
2019-03-25T17:38:30.132Z,7.27
2019-03-25T17:40:59.079Z,5.17
2019-03-25T17:43:27.985Z,7.30
2019-03-25T17:45:56.936Z,4.60
2019-03-25T17:48:25.861Z,8.77
2019-03-25T17:50:54.810Z,8.00
2019-03-25T17:53:23.715Z,6.20
2019-03-25T17:55:52.674Z,4.73
2019-03-25T17:58:21.576Z,6.63
2019-03-25T18:00:53.832Z,6.13
2019-03-25T18:03:23.099Z,7.63
2019-03-25T18:05:52.040Z,6.30
2019-03-25T18:08:20.945Z,6.20
2019-03-25T18:10:49.889Z,5.63
2019-03-25T18:13:22.595Z,5.47
2019-03-25T18:15:49.380Z,10.10
2019-03-25T18:18:18.280Z,45.70
2019-03-25T18:20:47.202Z,25.33
2019-03-25T18:23:16.137Z,10.47
2019-03-25T18:25:45.047Z,8.13
2019-03-25T18:28:13.983Z,7.00
2019-03-25T18:30:42.927Z,12.23
2019-03-25T18:33:11.877Z,18.80
2019-03-25T18:35:40.788Z,10.10
2019-03-25T18:38:09.730Z,13.33
2019-03-25T18:40:38.629Z,8.30
2019-03-25T18:43:09.130Z,7.60
2019-03-25T18:45:38.026Z,7.13
2019-03-25T18:48:07.058Z,5.33
2019-03-25T18:50:36.070Z,8.00
2019-03-25T18:53:05.029Z,8.40
2019-03-25T18:55:34.537Z,5.87
2019-03-25T18:58:03.508Z,11.13
2019-03-25T19:00:35.839Z,6.17
2019-03-25T19:03:05.077Z,5.37
2019-03-25T19:05:34.013Z,6.57
2019-03-25T19:08:05.090Z,5.50
2019-03-25T19:10:34.907Z,7.80
2019-03-25T19:13:03.832Z,6.83
2019-03-25T19:15:32.739Z,3.67
2019-03-25T19:18:01.696Z,5.93
2019-03-25T19:20:30.709Z,9.70
2019-03-25T19:22:59.645Z,6.03
2019-03-25T19:25:28.558Z,7.73
2019-03-25T19:27:57.540Z,3.97
2019-03-25T19:30:26.487Z,6.30
2019-03-25T19:32:56.466Z,5.10
2019-03-25T19:35:25.400Z,10.37
2019-03-25T19:37:54.475Z,10.73
2019-03-25T19:40:23.449Z,5.47
2019-03-25T19:42:52.411Z,4.20
2019-03-25T19:45:21.359Z,4.93
2019-03-25T19:47:50.362Z,10.40
2019-03-25T19:50:19.466Z,6.73
2019-03-25T19:52:48.415Z,6.80
2019-03-25T19:55:17.354Z,7.33
2019-03-25T19:57:46.400Z,13.37
2019-03-25T20:00:15.515Z,9.87
2019-03-25T20:02:44.581Z,9.83
2019-03-25T20:05:14.775Z,8.40
2019-03-25T20:07:44.873Z,10.90
2019-03-25T20:10:16.872Z,18.03
2019-03-25T20:12:45.832Z,8.90
2019-03-25T20:15:14.837Z,18.37
2019-03-25T20:17:43.824Z,12.77
2019-03-25T20:20:14.483Z,12.10
2019-03-25T20:22:43.398Z,15.27
2019-03-25T20:25:12.491Z,18.77
2019-03-25T20:27:41.505Z,14.47
2019-03-25T20:30:11.627Z,12.83
2019-03-25T20:32:40.710Z,14.40
2019-03-25T20:35:09.898Z,12.60
2019-03-25T20:37:38.876Z,15.60
2019-03-25T20:40:11.035Z,19.47
2019-03-25T20:42:40.118Z,10.53
2019-03-25T20:45:09.645Z,20.93
2019-03-25T20:47:38.675Z,14.80
2019-03-25T20:50:08.150Z,14.47
2019-03-25T20:52:37.212Z,15.17
2019-03-25T20:55:07.811Z,21.13
2019-03-25T20:57:36.756Z,13.40
2019-03-25T21:00:10.265Z,15.60
2019-03-25T21:02:44.888Z,8.97
2019-03-25T21:05:10.037Z,12.37
2019-03-25T21:07:39.060Z,13.13
2019-03-25T21:10:08.604Z,10.03
2019-03-25T21:12:38.671Z,12.27
2019-03-25T21:15:09.196Z,12.33
2019-03-25T21:17:38.197Z,11.63
2019-03-25T21:20:08.227Z,8.70
2019-03-25T21:22:37.151Z,13.77
2019-03-25T21:25:07.691Z,12.37
2019-03-25T21:27:37.016Z,9.83
2019-03-25T21:30:07.798Z,9.00
2019-03-25T21:32:36.719Z,11.07
2019-03-25T21:35:07.506Z,10.53
2019-03-25T21:37:37.627Z,8.17
2019-03-25T21:40:07.652Z,12.43
2019-03-25T21:42:36.636Z,13.07
2019-03-25T21:45:10.308Z,10.83
2019-03-25T21:47:39.277Z,12.33
2019-03-25T21:50:08.650Z,5.43
2019-03-25T21:52:37.655Z,11.33
2019-03-25T21:55:07.361Z,9.63
2019-03-25T21:57:36.387Z,13.00
2019-03-25T22:00:07.649Z,6.50
2019-03-25T22:02:36.581Z,11.80
2019-03-25T22:05:06.885Z,12.60
2019-03-25T22:07:35.830Z,13.47
2019-03-25T22:10:05.935Z,11.57
2019-03-25T22:12:35.089Z,12.97
2019-03-25T22:15:06.477Z,12.27
2019-03-25T22:17:35.410Z,13.00
2019-03-25T22:20:10.120Z,26.33
2019-03-25T22:22:39.063Z,28.43
2019-03-25T22:25:08.766Z,20.03
2019-03-25T22:27:37.704Z,19.27
2019-03-25T22:30:07.717Z,14.87
2019-03-25T22:32:36.673Z,16.83
2019-03-25T22:35:08.722Z,16.47
2019-03-25T22:37:37.683Z,26.63
2019-03-25T22:40:08.844Z,16.90
2019-03-25T22:42:37.844Z,15.40
2019-03-25T22:45:07.434Z,17.67
2019-03-25T22:47:36.759Z,18.60
2019-03-25T22:50:07.725Z,15.90
2019-03-25T22:52:36.666Z,27.90
2019-03-25T22:55:07.103Z,21.53
2019-03-25T22:57:36.027Z,27.60
2019-03-25T23:00:07.464Z,16.00
2019-03-25T23:02:36.580Z,16.37
2019-03-25T23:05:06.932Z,16.47
2019-03-25T23:07:35.877Z,21.63
2019-03-25T23:10:05.281Z,23.03
2019-03-25T23:12:34.307Z,20.37
2019-03-25T23:15:03.276Z,23.47
2019-03-25T23:17:32.221Z,21.03
2019-03-25T23:20:01.129Z,22.30
2019-03-25T23:22:30.083Z,20.17
2019-03-25T23:24:58.987Z,29.13
2019-03-25T23:27:28.037Z,44.33
2019-03-25T23:29:56.938Z,25.10
2019-03-25T23:32:25.888Z,18.50
2019-03-25T23:34:54.786Z,31.87
2019-03-25T23:37:23.713Z,36.40
2019-03-25T23:39:52.662Z,26.47
2019-03-25T23:42:21.591Z,29.73
2019-03-25T23:44:51.124Z,23.53
2019-03-25T23:47:20.017Z,25.60
2019-03-25T23:49:48.977Z,30.00
2019-03-25T23:52:17.876Z,28.27
2019-03-25T23:54:46.819Z,26.10
2019-03-25T23:57:15.742Z,23.17
2019-03-25T23:59:44.732Z,27.93
